createdAt,value
2019-04-20T00:01:26.761Z,1.00
2019-04-20T00:03:53.719Z,1.00
2019-04-20T00:06:23.406Z,1.00
2019-04-20T00:09:01.836Z,1.00
2019-04-20T00:11:29.598Z,1.00
2019-04-20T00:14:04.168Z,1.00
2019-04-20T00:16:27.735Z,1.00
2019-04-20T00:19:00.752Z,1.00
2019-04-20T00:21:46.998Z,1.00
2019-04-20T00:24:27.312Z,1.00
2019-04-20T00:27:16.304Z,1.00
2019-04-20T00:29:47.829Z,1.00
2019-04-20T00:32:06.322Z,1.00
2019-04-20T00:34:31.989Z,1.00
2019-04-20T00:37:00.273Z,1.00
2019-04-20T00:39:30.083Z,1.00
2019-04-20T00:42:04.430Z,1.00
2019-04-20T00:44:35.879Z,1.00
2019-04-20T00:47:13.369Z,1.00
2019-04-20T00:49:48.142Z,1.00
2019-04-20T00:52:27.647Z,1.00
2019-04-20T00:54:37.042Z,1.00
2019-04-20T00:57:20.359Z,1.00
2019-04-20T01:00:02.628Z,1.00
2019-04-20T01:02:28.859Z,1.00
2019-04-20T01:05:02.518Z,1.00
2019-04-20T01:07:43.274Z,1.00
2019-04-20T01:10:13.593Z,1.00
2019-04-20T01:12:44.452Z,1.00
2019-04-20T01:15:25.617Z,1.00
2019-04-20T01:17:46.279Z,1.00
2019-04-20T01:20:16.309Z,1.00
2019-04-20T01:22:58.657Z,1.00
2019-04-20T01:25:26.359Z,1.00
2019-04-20T01:28:09.886Z,1.00
2019-04-20T01:30:30.139Z,1.00
2019-04-20T01:33:08.910Z,1.00
2019-04-20T01:35:40.805Z,1.00
2019-04-20T01:38:12.529Z,1.00
2019-04-20T01:40:27.505Z,1.00
2019-04-20T01:42:57.800Z,1.00
2019-04-20T01:45:31.322Z,1.00
2019-04-20T01:48:01.287Z,1.00
2019-04-20T01:50:34.969Z,1.00
2019-04-20T01:53:12.773Z,1.00
2019-04-20T01:55:49.386Z,1.00
2019-04-20T01:58:47.965Z,1.00
2019-04-20T02:01:21.049Z,1.00
2019-04-20T02:03:57.041Z,1.00
2019-04-20T02:06:28.488Z,1.00
2019-04-20T02:09:03.361Z,1.00
2019-04-20T02:11:34.256Z,1.00
2019-04-20T02:14:04.815Z,1.00
2019-04-20T02:16:38.567Z,1.00
2019-04-20T02:19:19.625Z,1.00
2019-04-20T02:21:51.798Z,1.00
2019-04-20T02:24:08.046Z,1.00
2019-04-20T02:26:36.718Z,1.00
2019-04-20T02:29:30.580Z,1.00
2019-04-20T02:34:53.739Z,1.00
2019-04-20T02:37:55.112Z,1.00
2019-04-20T02:40:09.149Z,1.00
2019-04-20T02:42:46.703Z,1.00
2019-04-20T02:45:17.433Z,1.00
2019-04-20T02:50:14.995Z,1.00
2019-04-20T02:53:06.166Z,1.00
2019-04-20T02:55:14.785Z,1.00
2019-04-20T02:57:55.195Z,1.00
2019-04-20T03:00:13.773Z,1.00
2019-04-20T03:02:36.194Z,1.00
2019-04-20T03:05:02.653Z,1.00
2019-04-20T03:07:34.130Z,1.00
2019-04-20T03:10:11.039Z,1.00
2019-04-20T03:12:47.489Z,1.00
2019-04-20T03:15:13.664Z,1.00
2019-04-20T03:17:53.509Z,1.00
2019-04-20T03:20:24.220Z,1.00
2019-04-20T03:23:12.677Z,1.00
2019-04-20T03:25:43.119Z,1.00
2019-04-20T03:28:14.103Z,1.00
2019-04-20T03:31:29.441Z,1.00
2019-04-20T03:33:44.600Z,1.00
2019-04-20T03:36:07.879Z,1.00
2019-04-20T03:38:30.176Z,1.00
2019-04-20T03:40:51.309Z,1.00
2019-04-20T03:43:09.851Z,1.00
2019-04-20T03:45:48.632Z,1.00
2019-04-20T03:48:29.514Z,1.00
2019-04-20T03:51:06.171Z,1.00
2019-04-20T03:53:38.329Z,1.00
2019-04-20T03:56:28.026Z,1.00
2019-04-20T03:58:55.153Z,1.00
2019-04-20T04:02:06.129Z,1.00
2019-04-20T04:04:16.910Z,1.00
2019-04-20T04:06:37.205Z,1.00
2019-04-20T04:09:12.274Z,1.00
2019-04-20T04:11:43.491Z,1.00
2019-04-20T04:14:00.856Z,1.00
2019-04-20T04:16:39.449Z,1.00
2019-04-20T04:19:15.422Z,1.00
2019-04-20T04:21:49.725Z,1.00
2019-04-20T04:24:18.094Z,1.00
2019-04-20T04:26:51.183Z,1.00
2019-04-20T04:29:34.588Z,1.00
2019-04-20T04:32:06.616Z,1.00
2019-04-20T04:34:28.788Z,1.00
2019-04-20T04:37:03.275Z,1.00
2019-04-20T04:39:41.759Z,1.00
2019-04-20T04:42:11.569Z,1.00
2019-04-20T04:44:33.558Z,1.00
2019-04-20T04:46:53.846Z,1.00
2019-04-20T04:49:28.486Z,1.00
2019-04-20T04:52:02.329Z,1.00
2019-04-20T04:54:34.212Z,1.00
2019-04-20T04:56:58.624Z,1.00
2019-04-20T04:59:29.569Z,1.00
2019-04-20T05:02:00.496Z,1.00
2019-04-20T05:05:34.149Z,1.00
2019-04-20T05:07:53.899Z,1.00
2019-04-20T05:10:11.910Z,1.00
2019-04-20T05:12:42.223Z,1.00
2019-04-20T05:15:22.678Z,1.00
2019-04-20T05:18:05.827Z,1.00
2019-04-20T05:20:43.816Z,1.00
2019-04-20T05:23:20.721Z,1.00
2019-04-20T05:26:20.197Z,1.00
2019-04-20T05:28:43.069Z,1.00
2019-04-20T05:31:04.869Z,1.00
2019-04-20T05:34:01.004Z,1.00
2019-04-20T05:36:33.984Z,1.00
2019-04-20T05:39:02.702Z,1.00
2019-04-20T05:41:26.803Z,1.00
2019-04-20T05:44:08.763Z,1.00
2019-04-20T05:46:42.250Z,1.00
2019-04-20T05:49:19.177Z,1.00
2019-04-20T05:51:45.115Z,1.00
2019-04-20T05:54:23.503Z,1.00
2019-04-20T05:56:47.760Z,1.00
2019-04-20T05:59:16.186Z,1.00
2019-04-20T06:02:01.763Z,1.00
2019-04-20T06:04:30.082Z,1.00
2019-04-20T06:06:54.871Z,1.00
2019-04-20T06:09:28.283Z,1.00
2019-04-20T06:12:08.937Z,1.00
2019-04-20T06:14:44.236Z,1.00
2019-04-20T06:17:46.357Z,1.00
2019-04-20T06:20:06.252Z,1.00
2019-04-20T06:22:59.893Z,1.00
2019-04-20T06:25:41.712Z,1.00
2019-04-20T06:27:55.369Z,1.00
2019-04-20T06:30:19.778Z,1.00
2019-04-20T06:33:45.120Z,1.00
2019-04-20T06:36:13.974Z,1.00
2019-04-20T06:38:52.303Z,1.00
2019-04-20T06:41:12.991Z,1.00
2019-04-20T06:43:41.197Z,1.00
2019-04-20T06:46:09.562Z,1.00
2019-04-20T06:51:20.584Z,1.00
2019-04-20T06:53:54.029Z,1.00
2019-04-20T06:56:35.773Z,1.00
2019-04-20T06:59:11.723Z,1.00
2019-04-20T07:01:42.214Z,1.00
2019-04-20T07:04:29.210Z,1.00
2019-04-20T07:09:19.949Z,1.00
2019-04-20T07:11:46.460Z,1.00
2019-04-20T07:14:02.812Z,1.00
2019-04-20T07:17:34.994Z,1.00
2019-04-20T07:20:14.583Z,1.00
2019-04-20T07:22:53.884Z,1.00
2019-04-20T07:25:29.279Z,1.00
2019-04-20T07:27:58.294Z,1.00
2019-04-20T07:30:33.430Z,1.00
2019-04-20T07:35:30.742Z,1.00
2019-04-20T07:40:35.942Z,1.00
2019-04-20T07:43:02.741Z,1.00
2019-04-20T07:45:33.168Z,1.00
2019-04-20T07:48:15.538Z,1.00
2019-04-20T07:50:34.977Z,1.00
2019-04-20T07:53:08.925Z,1.00
2019-04-20T07:55:52.122Z,1.00
2019-04-20T07:58:08.272Z,1.00
2019-04-20T08:00:59.471Z,1.00
2019-04-20T08:03:33.811Z,1.00
2019-04-20T08:06:01.486Z,1.00
2019-04-20T08:08:35.224Z,1.00
2019-04-20T08:11:09.764Z,1.00
2019-04-20T08:13:49.384Z,1.00
2019-04-20T08:16:17.004Z,1.00
2019-04-20T08:18:50.124Z,1.00
2019-04-20T08:21:24.304Z,1.00
2019-04-20T08:23:48.922Z,1.00
2019-04-20T08:26:10.958Z,1.00
2019-04-20T08:28:46.537Z,1.00
2019-04-20T08:31:38.601Z,1.00
2019-04-20T08:34:24.711Z,1.00
2019-04-20T08:36:53.946Z,99.90
2019-04-20T08:39:32.407Z,99.90
2019-04-20T08:41:53.484Z,22.50
2019-04-20T08:44:42.796Z,7.40
2019-04-20T08:47:07.257Z,26.90
2019-04-20T08:49:31.089Z,99.90
2019-04-20T08:52:01.829Z,1.00
2019-04-20T08:54:21.713Z,1.00
2019-04-20T08:56:47.061Z,99.90
2019-04-20T08:59:11.529Z,99.90
2019-04-20T09:01:42.652Z,99.90
2019-04-20T09:04:19.677Z,1.00
2019-04-20T09:07:00.113Z,99.90
2019-04-20T09:09:44.527Z,99.90
2019-04-20T09:12:05.910Z,99.90
2019-04-20T09:14:21.719Z,23.10
2019-04-20T09:17:03.739Z,99.90
2019-04-20T09:19:41.647Z,1.00
2019-04-20T09:22:28.067Z,99.90
2019-04-20T09:25:19.252Z,99.90
2019-04-20T09:27:32.770Z,1.00
2019-04-20T09:30:16.054Z,77.80
2019-04-20T09:32:43.988Z,1.00
2019-04-20T09:35:20.571Z,99.90
2019-04-20T09:37:57.194Z,1.00
2019-04-20T09:40:32.145Z,99.90
2019-04-20T09:43:18.990Z,49.30
2019-04-20T09:45:55.515Z,1.00
2019-04-20T09:48:31.337Z,99.90
2019-04-20T09:51:14.562Z,28.90
2019-04-20T09:53:35.797Z,1.00
2019-04-20T09:56:12.942Z,1.00
2019-04-20T09:58:39.749Z,1.00
2019-04-20T10:01:11.082Z,99.90
2019-04-20T10:03:31.711Z,1.00
2019-04-20T10:06:01.534Z,99.90
2019-04-20T10:08:34.061Z,99.90
2019-04-20T10:11:03.529Z,1.00
2019-04-20T10:13:34.336Z,1.00
2019-04-20T10:16:04.068Z,1.00
2019-04-20T10:18:39.285Z,1.00
2019-04-20T10:21:05.505Z,1.00
2019-04-20T10:23:36.538Z,1.00
2019-04-20T10:26:06.774Z,99.90
2019-04-20T10:28:37.399Z,99.90
2019-04-20T10:31:08.380Z,99.90
2019-04-20T10:33:39.542Z,99.90
2019-04-20T10:36:19.471Z,99.90
2019-04-20T10:38:50.630Z,99.90
2019-04-20T10:41:33.917Z,99.90
2019-04-20T10:43:53.104Z,99.90
2019-04-20T10:46:22.843Z,99.90
2019-04-20T10:48:54.502Z,99.90
2019-04-20T10:51:24.187Z,99.90
2019-04-20T10:53:54.136Z,99.90
2019-04-20T10:56:23.883Z,99.90
2019-04-20T10:58:53.815Z,99.90
2019-04-20T11:01:23.704Z,99.90
2019-04-20T11:03:54.420Z,99.90
2019-04-20T11:06:28.936Z,99.90
2019-04-20T11:08:58.883Z,99.90
2019-04-20T11:11:30.333Z,99.90
2019-04-20T11:14:08.198Z,99.90
2019-04-20T11:16:33.029Z,99.90
2019-04-20T11:19:03.242Z,99.90
2019-04-20T11:21:32.843Z,99.90
2019-04-20T11:24:02.571Z,99.90
2019-04-20T11:26:35.363Z,99.90
2019-04-20T11:29:04.448Z,99.90
2019-04-20T11:31:39.492Z,99.90
2019-04-20T11:34:06.058Z,99.90
2019-04-20T11:36:37.006Z,99.90
2019-04-20T11:39:11.171Z,99.90
2019-04-20T11:41:41.471Z,99.90
2019-04-20T11:44:11.764Z,99.90
2019-04-20T11:46:42.817Z,99.90
2019-04-20T11:49:13.189Z,99.90
2019-04-20T11:51:45.587Z,99.90
2019-04-20T11:54:16.357Z,99.90
2019-04-20T11:56:47.288Z,99.90
2019-04-20T11:59:17.092Z,99.90
2019-04-20T12:02:10.822Z,99.90
2019-04-20T12:04:51.964Z,99.90
2019-04-20T12:07:17.091Z,99.90
2019-04-20T12:09:47.328Z,99.90
2019-04-20T12:12:27.265Z,99.90
2019-04-20T12:14:50.512Z,99.90
2019-04-20T12:17:21.705Z,99.90
2019-04-20T12:19:52.998Z,99.90
2019-04-20T12:22:24.158Z,99.90
2019-04-20T12:24:54.154Z,99.90
2019-04-20T12:27:24.963Z,99.90
2019-04-20T12:29:54.933Z,99.90
2019-04-20T12:32:35.202Z,99.90
2019-04-20T12:35:00.216Z,99.90
2019-04-20T12:37:31.228Z,99.90
2019-04-20T12:40:01.243Z,99.90
2019-04-20T12:42:31.129Z,99.90
2019-04-20T12:45:01.735Z,99.90
2019-04-20T12:47:32.079Z,99.90
2019-04-20T12:50:03.477Z,99.90
2019-04-20T12:52:34.636Z,99.90
2019-04-20T12:55:06.346Z,99.90
2019-04-20T12:57:36.534Z,99.90
2019-04-20T13:00:07.676Z,99.90
2019-04-20T13:02:38.961Z,99.90
2019-04-20T13:05:11.180Z,99.90
2019-04-20T13:07:47.825Z,99.90
2019-04-20T13:10:15.813Z,99.90
2019-04-20T13:13:10.197Z,99.90
2019-04-20T13:16:02.642Z,99.90
2019-04-20T13:18:41.216Z,99.90
2019-04-20T13:21:11.258Z,99.90
2019-04-20T13:23:44.790Z,99.90
2019-04-20T13:26:15.668Z,99.90
2019-04-20T13:28:47.035Z,96.20
2019-04-20T13:31:17.784Z,94.10
2019-04-20T13:33:49.426Z,5.80
2019-04-20T13:36:19.898Z,3.60
2019-04-20T13:38:50.138Z,2.30
2019-04-20T13:41:20.050Z,1.10
2019-04-20T13:43:50.222Z,1.00
2019-04-20T13:46:22.906Z,1.00
2019-04-20T13:48:53.162Z,1.00
2019-04-20T13:51:23.145Z,1.00
2019-04-20T13:53:53.285Z,1.00
2019-04-20T13:56:25.747Z,1.00
2019-04-20T13:59:17.197Z,1.00
2019-04-20T14:02:01.309Z,1.00
2019-04-20T14:04:41.011Z,1.00
2019-04-20T14:07:14.169Z,1.00
2019-04-20T14:09:46.208Z,1.00
2019-04-20T14:12:23.367Z,1.00
2019-04-20T14:14:47.365Z,1.00
2019-04-20T14:17:17.246Z,1.10
2019-04-20T14:19:47.445Z,1.00
2019-04-20T14:22:18.762Z,1.00
2019-04-20T14:24:48.969Z,1.00
2019-04-20T14:27:19.039Z,1.00
2019-04-20T14:29:48.934Z,1.00
2019-04-20T14:32:18.837Z,1.00
2019-04-20T14:34:49.011Z,1.00
2019-04-20T14:37:18.869Z,1.00
2019-04-20T14:39:48.447Z,1.00
2019-04-20T14:42:32.836Z,1.00
2019-04-20T14:44:50.136Z,1.00
2019-04-20T14:47:19.955Z,1.00
2019-04-20T14:49:50.536Z,1.00
2019-04-20T14:52:21.666Z,1.00
2019-04-20T14:54:51.407Z,1.00
2019-04-20T14:57:21.490Z,1.00
2019-04-20T14:59:55.804Z,1.00
2019-04-20T15:02:30.178Z,1.00
2019-04-20T15:05:01.327Z,1.00
2019-04-20T15:07:31.323Z,1.00
2019-04-20T15:10:01.076Z,1.00
2019-04-20T15:12:41.726Z,1.00
2019-04-20T15:15:03.126Z,1.00
2019-04-20T15:17:39.417Z,1.00
2019-04-20T15:20:29.662Z,1.00
2019-04-20T15:23:01.373Z,1.00
2019-04-20T15:25:31.665Z,1.00
2019-04-20T15:28:02.716Z,1.00
2019-04-20T15:30:33.949Z,1.00
2019-04-20T15:33:05.144Z,1.00
2019-04-20T15:35:35.364Z,1.00
2019-04-20T15:38:05.198Z,1.00
2019-04-20T15:40:35.284Z,1.00
2019-04-20T15:43:13.293Z,1.00
2019-04-20T15:45:37.093Z,1.00
2019-04-20T15:48:07.971Z,1.00
2019-04-20T15:50:38.217Z,1.00
2019-04-20T15:53:08.753Z,1.00
2019-04-20T15:55:41.576Z,1.00
2019-04-20T15:58:10.234Z,1.00
2019-04-20T16:00:42.527Z,1.00
2019-04-20T16:03:33.012Z,1.00
2019-04-20T16:06:05.247Z,1.00
2019-04-20T16:08:36.857Z,1.00
2019-04-20T16:11:07.243Z,1.00
2019-04-20T16:13:40.360Z,1.00
2019-04-20T16:16:09.946Z,1.00
2019-04-20T16:18:40.974Z,1.00
2019-04-20T16:21:17.817Z,1.00
2019-04-20T16:23:50.762Z,1.00
2019-04-20T16:26:38.006Z,1.00
2019-04-20T16:29:08.307Z,1.00
2019-04-20T16:31:38.488Z,1.00
2019-04-20T16:34:09.512Z,1.00
2019-04-20T16:36:39.280Z,1.00
2019-04-20T16:39:11.114Z,1.00
2019-04-20T16:41:42.310Z,1.00
2019-04-20T16:44:13.309Z,1.00
2019-04-20T16:46:43.287Z,1.00
2019-04-20T16:49:13.023Z,1.00
2019-04-20T16:51:43.004Z,1.00
2019-04-20T16:54:13.899Z,1.00
2019-04-20T16:56:44.526Z,1.00
2019-04-20T16:59:15.964Z,1.00
2019-04-20T17:01:46.666Z,1.00
2019-04-20T17:04:20.554Z,1.00
2019-04-20T17:07:10.301Z,1.00
2019-04-20T17:09:41.933Z,1.00
2019-04-20T17:12:12.053Z,1.00
2019-04-20T17:14:43.246Z,1.00
2019-04-20T17:17:13.523Z,1.00
2019-04-20T17:19:43.925Z,1.00
2019-04-20T17:22:13.916Z,1.00
2019-04-20T17:24:45.191Z,1.00
2019-04-20T17:27:33.058Z,1.00
2019-04-20T17:30:26.686Z,1.00
2019-04-20T17:32:59.953Z,1.00
2019-04-20T17:35:41.253Z,1.00
2019-04-20T17:38:02.663Z,1.00
2019-04-20T17:40:52.621Z,1.00
2019-04-20T17:43:16.095Z,1.00
2019-04-20T17:45:44.601Z,1.00
2019-04-20T17:48:18.786Z,1.00
2019-04-20T17:51:01.393Z,1.00
2019-04-20T17:53:37.645Z,1.00
2019-04-20T17:56:01.652Z,1.00
2019-04-20T17:58:33.539Z,1.00
2019-04-20T18:01:36.231Z,1.00
2019-04-20T18:04:27.387Z,1.00
2019-04-20T18:06:44.069Z,1.00
2019-04-20T18:09:34.418Z,1.00
2019-04-20T18:11:46.646Z,1.00
2019-04-20T18:14:28.324Z,1.00
2019-04-20T18:17:08.847Z,1.00
2019-04-20T18:19:29.428Z,3.70
2019-04-20T18:22:03.671Z,1.00
2019-04-20T18:24:56.808Z,1.00
2019-04-20T18:27:30.075Z,1.00
2019-04-20T18:29:52.822Z,1.00
2019-04-20T18:32:25.298Z,2.50
2019-04-20T18:35:04.557Z,4.70
2019-04-20T18:37:34.545Z,12.20
2019-04-20T18:40:12.018Z,16.10
2019-04-20T18:42:42.092Z,18.80
2019-04-20T18:45:26.994Z,24.80
2019-04-20T18:47:59.992Z,30.30
2019-04-20T18:50:22.409Z,40.20
2019-04-20T18:52:49.823Z,39.50
2019-04-20T18:55:29.341Z,45.00
2019-04-20T18:57:51.263Z,50.20
2019-04-20T19:00:28.752Z,67.50
2019-04-20T19:02:57.567Z,79.30
2019-04-20T19:05:29.681Z,86.20
2019-04-20T19:08:06.215Z,96.30
2019-04-20T19:10:36.438Z,99.90
2019-04-20T19:13:19.418Z,99.90
2019-04-20T19:16:15.395Z,99.90
2019-04-20T19:19:09.401Z,99.90
2019-04-20T19:21:31.234Z,99.90
2019-04-20T19:24:07.398Z,99.90
2019-04-20T19:26:32.488Z,99.90
2019-04-20T19:29:11.077Z,99.90
2019-04-20T19:31:45.796Z,99.90
2019-04-20T19:34:28.958Z,1.00
2019-04-20T19:36:43.698Z,1.00
2019-04-20T19:39:23.577Z,1.00
2019-04-20T19:41:51.661Z,1.00
2019-04-20T19:44:21.301Z,99.90
2019-04-20T19:47:09.144Z,99.90
2019-04-20T19:49:25.302Z,1.00
2019-04-20T19:52:20.183Z,1.00
2019-04-20T19:54:42.627Z,19.10
2019-04-20T19:57:05.025Z,99.90
2019-04-20T19:59:33.314Z,99.90
2019-04-20T20:01:55.896Z,99.90
2019-04-20T20:04:25.895Z,99.90
2019-04-20T20:07:02.071Z,99.90
2019-04-20T20:09:28.033Z,1.00
2019-04-20T20:12:03.709Z,1.00
2019-04-20T20:14:36.810Z,1.00
2019-04-20T20:17:19.588Z,99.90
2019-04-20T20:20:03.993Z,99.90
2019-04-20T20:22:17.199Z,1.00
2019-04-20T20:24:36.787Z,1.00
2019-04-20T20:27:20.785Z,99.90
2019-04-20T20:29:47.211Z,99.90
2019-04-20T20:32:20.140Z,99.90
2019-04-20T20:34:54.376Z,99.90
2019-04-20T20:37:29.528Z,28.80
2019-04-20T20:39:59.333Z,1.00
2019-04-20T20:42:29.600Z,63.10
2019-04-20T20:44:57.291Z,1.00
2019-04-20T20:47:41.203Z,1.00
2019-04-20T20:50:20.386Z,1.00
2019-04-20T20:52:39.654Z,99.90
2019-04-20T20:55:04.676Z,1.00
2019-04-20T20:57:38.571Z,1.00
2019-04-20T21:00:03.564Z,1.00
2019-04-20T21:02:44.077Z,1.00
2019-04-20T21:05:01.915Z,1.00
2019-04-20T21:07:31.816Z,3.00
2019-04-20T21:10:01.455Z,99.90
2019-04-20T21:12:31.044Z,1.00
2019-04-20T21:15:08.255Z,33.60
2019-04-20T21:17:41.394Z,1.00
2019-04-20T21:20:19.118Z,99.90
2019-04-20T21:22:54.888Z,99.90
2019-04-20T21:25:10.814Z,99.90
2019-04-20T21:27:42.528Z,1.00
2019-04-20T21:30:20.799Z,99.90
2019-04-20T21:32:47.237Z,1.00
2019-04-20T21:35:16.120Z,99.90
2019-04-20T21:37:51.239Z,1.00
2019-04-20T21:40:26.144Z,99.90
2019-04-20T21:42:55.230Z,99.90
2019-04-20T21:45:25.677Z,99.90
2019-04-20T21:47:52.612Z,99.90
2019-04-20T21:50:36.897Z,99.30
2019-04-20T21:53:00.713Z,67.70
2019-04-20T21:55:25.976Z,99.90
2019-04-20T21:57:59.966Z,1.00
2019-04-20T22:00:43.265Z,1.00
2019-04-20T22:03:11.418Z,1.00
2019-04-20T22:05:42.211Z,99.90
2019-04-20T22:08:15.951Z,1.00
2019-04-20T22:10:44.834Z,20.90
2019-04-20T22:13:19.394Z,1.00
2019-04-20T22:15:54.525Z,99.90
2019-04-20T22:18:21.239Z,99.90
2019-04-20T22:21:02.286Z,1.00
2019-04-20T22:23:40.686Z,99.90
2019-04-20T22:26:03.955Z,1.00
2019-04-20T22:28:22.807Z,99.90
2019-04-20T22:30:53.806Z,1.00
2019-04-20T22:33:31.731Z,1.00
2019-04-20T22:36:02.204Z,1.00
2019-04-20T22:38:39.292Z,1.00
2019-04-20T22:41:11.965Z,1.00
2019-04-20T22:43:39.805Z,1.00
2019-04-20T22:46:07.832Z,1.00
2019-04-20T22:48:45.017Z,99.90
2019-04-20T22:51:28.096Z,99.90
2019-04-20T22:53:49.816Z,10.60
2019-04-20T22:58:54.156Z,99.90
2019-04-20T23:01:27.710Z,1.00
2019-04-20T23:03:47.306Z,1.00
2019-04-20T23:06:20.767Z,99.90
2019-04-20T23:08:56.226Z,99.90
2019-04-20T23:11:28.098Z,99.90
2019-04-20T23:13:56.095Z,99.90
2019-04-20T23:16:29.933Z,99.90
2019-04-20T23:18:58.250Z,99.90
2019-04-20T23:21:28.024Z,99.90
2019-04-20T23:24:01.545Z,99.80
2019-04-20T23:26:34.868Z,99.90
2019-04-20T23:29:02.555Z,99.90
2019-04-20T23:31:32.417Z,99.90
2019-04-20T23:34:12.869Z,99.90
2019-04-20T23:36:38.913Z,1.00
2019-04-20T23:39:06.924Z,1.00
2019-04-20T23:41:37.700Z,1.00
2019-04-20T23:44:25.260Z,1.00
2019-04-20T23:47:06.917Z,99.90
2019-04-20T23:49:53.552Z,1.00
2019-04-20T23:52:32.277Z,87.60
2019-04-20T23:54:37.572Z,1.00
2019-04-20T23:57:08.100Z,43.40
2019-04-20T23:59:41.820Z,1.00
